Time;durP1;ratioP1;P1;durP2;ratioP2;P2;SDS_P1;SDS_P2;PMS_P1;PMS_P2;Temp;Humidity;BMP_temperature;BMP_pressure;BME280_temperature;BME280_humidity;BME280_pressure;Samples;Min_cycle;Max_cycle;Signal;HPM_P1;HPM_P2
2023/03/04 00:01:43;;;;;;;21.07;2.23;;;;;;;;;;5052456;28;20211;-66
2023/03/04 00:04:08;;;;;;;19.77;2.20;;;;;;;;;;5069409;28;20285;-66
2023/03/04 00:06:34;;;;;;;21.93;2.70;;;;;;;;;;5076555;28;20188;-66
2023/03/04 00:09:00;;;;;;;19.53;2.40;;;;;;;;;;5066803;28;20207;-66
2023/03/04 00:11:25;;;;;;;18.60;2.83;;;;;;;;;;5067694;28;20185;-66
2023/03/04 00:13:51;;;;;;;16.63;2.50;;;;;;;;;;5072092;28;20192;-67
2023/03/04 00:16:17;;;;;;;17.40;2.03;;;;;;;;;;5058621;28;20289;-66
2023/03/04 00:18:42;;;;;;;20.43;3.40;;;;;;;;;;5062752;28;20300;-66
2023/03/04 00:21:08;;;;;;;20.63;2.97;;;;;;;;;;5052063;28;20182;-66
2023/03/04 00:23:33;;;;;;;15.33;2.30;;;;;;;;;;5065344;28;20368;-66
2023/03/04 00:25:58;;;;;;;16.67;2.50;;;;;;;;;;5070528;28;20618;-66
2023/03/04 00:28:24;;;;;;;17.38;2.60;;;;;;;;;;5056272;28;20186;-66
2023/03/04 00:30:49;;;;;;;22.60;2.90;;;;;;;;;;5051065;28;20204;-66
2023/03/04 00:33:15;;;;;;;24.47;2.93;;;;;;;;;;5055854;28;20245;-66
2023/03/04 00:35:41;;;;;;;26.07;2.73;;;;;;;;;;5047231;28;20708;-66
2023/03/04 00:38:07;;;;;;;16.87;2.30;;;;;;;;;;5051808;28;20229;-66
2023/03/04 00:40:33;;;;;;;11.70;1.90;;;;;;;;;;5067712;28;20188;-66
2023/03/04 00:42:58;;;;;;;20.52;2.15;;;;;;;;;;5069210;28;20189;-66
2023/03/04 00:45:23;;;;;;;9.27;1.80;;;;;;;;;;5061121;28;20632;-66
2023/03/04 00:47:49;;;;;;;12.77;1.65;;;;;;;;;;5053422;28;20186;-66
2023/03/04 00:50:14;;;;;;;18.87;2.47;;;;;;;;;;5051274;28;20212;-66
2023/03/04 00:52:39;;;;;;;18.80;2.00;;;;;;;;;;5064227;28;20205;-66
2023/03/04 00:55:06;;;;;;;11.65;1.80;;;;;;;;;;5068409;28;20276;-66
2023/03/04 00:57:31;;;;;;;17.17;2.13;;;;;;;;;;5062302;28;20242;-66
2023/03/04 00:59:57;;;;;;;12.20;2.10;;;;;;;;;;5063892;28;20209;-66
2023/03/04 01:02:22;;;;;;;15.83;2.70;;;;;;;;;;5057128;28;20215;-66
2023/03/04 01:04:47;;;;;;;18.58;1.90;;;;;;;;;;5068252;28;20257;-66
2023/03/04 01:07:13;;;;;;;17.80;1.70;;;;;;;;;;5049413;28;20652;-66
2023/03/04 01:09:39;;;;;;;12.75;1.80;;;;;;;;;;5051126;28;20685;-66
2023/03/04 01:12:04;;;;;;;25.17;2.15;;;;;;;;;;5052448;28;20231;-66
2023/03/04 01:14:30;;;;;;;15.60;2.27;;;;;;;;;;5050999;28;20189;-66
2023/03/04 01:16:55;;;;;;;15.88;2.03;;;;;;;;;;5049937;28;20194;-66
2023/03/04 01:19:20;;;;;;;11.77;1.93;;;;;;;;;;5053433;28;20197;-66
2023/03/04 01:21:46;;;;;;;12.67;2.20;;;;;;;;;;5063133;28;20631;-66
2023/03/04 01:24:11;;;;;;;18.17;2.50;;;;;;;;;;5067968;28;20271;-66
2023/03/04 01:26:36;;;;;;;13.47;2.37;;;;;;;;;;5063424;28;20674;-66
2023/03/04 01:29:03;;;;;;;13.97;1.77;;;;;;;;;;5054217;28;20310;-66
2023/03/04 01:31:28;;;;;;;13.50;2.42;;;;;;;;;;5061509;28;20195;-66
2023/03/04 01:33:54;;;;;;;13.40;1.80;;;;;;;;;;5068667;28;20602;-66
2023/03/04 01:36:19;;;;;;;17.27;2.03;;;;;;;;;;5060204;28;20191;-66
2023/03/04 01:38:44;;;;;;;24.53;4.23;;;;;;;;;;5060591;28;20205;-66
2023/03/04 01:41:12;;;;;;;19.90;1.73;;;;;;;;;;5064059;28;20208;-66
2023/03/04 01:43:38;;;;;;;13.60;2.50;;;;;;;;;;5064238;28;20637;-66
2023/03/04 01:46:04;;;;;;;13.70;2.17;;;;;;;;;;5056762;28;20197;-66
2023/03/04 01:48:35;;;;;;;14.23;2.23;;;;;;;;;;5061889;28;20733;-66
2023/03/04 01:51:03;;;;;;;20.23;1.73;;;;;;;;;;5060951;28;20190;-65
2023/03/04 01:53:29;;;;;;;15.68;2.33;;;;;;;;;;5060658;28;20200;-66
2023/03/04 01:56:13;;;;;;;16.20;2.23;;;;;;;;;;5056125;28;20242;-65
2023/03/04 01:58:38;;;;;;;19.80;2.40;;;;;;;;;;5067214;28;20238;-66
2023/03/04 02:01:04;;;;;;;15.63;2.00;;;;;;;;;;5050773;28;20209;-66
2023/03/04 02:03:29;;;;;;;17.47;2.10;;;;;;;;;;5062355;28;20233;-66
2023/03/04 02:05:55;;;;;;;17.60;2.45;;;;;;;;;;5052277;28;20200;-66
2023/03/04 02:08:22;;;;;;;17.83;2.05;;;;;;;;;;5055263;28;20549;-66
2023/03/04 02:10:49;;;;;;;16.40;2.17;;;;;;;;;;5054710;28;20558;-66
2023/03/04 02:13:15;;;;;;;16.73;2.30;;;;;;;;;;5055449;28;20214;-65
2023/03/04 02:15:43;;;;;;;11.67;2.10;;;;;;;;;;5061622;28;20539;-65
2023/03/04 02:18:13;;;;;;;15.43;2.10;;;;;;;;;;5066863;28;20200;-67
2023/03/04 02:20:49;;;;;;;17.27;2.30;;;;;;;;;;5070408;28;20257;-66
2023/03/04 02:23:41;;;;;;;17.20;2.33;;;;;;;;;;5061464;28;20185;-66
2023/03/04 02:26:18;;;;;;;14.97;2.30;;;;;;;;;;5050268;28;20197;-66
2023/03/04 02:28:46;;;;;;;16.35;1.98;;;;;;;;;;5065201;28;20184;-66
2023/03/04 02:31:33;;;;;;;17.90;2.23;;;;;;;;;;5060700;28;20196;-66
2023/03/04 02:34:09;;;;;;;12.13;2.20;;;;;;;;;;5049811;28;20237;-66
2023/03/04 02:36:36;;;;;;;15.37;1.83;;;;;;;;;;5063606;28;20687;-66
2023/03/04 02:39:20;;;;;;;12.93;2.40;;;;;;;;;;5054632;28;20229;-66
2023/03/04 02:41:47;;;;;;;17.67;2.50;;;;;;;;;;5053456;28;20193;-66
2023/03/04 02:44:22;;;;;;;13.50;1.83;;;;;;;;;;5059807;28;20273;-66
2023/03/04 02:46:48;;;;;;;17.35;4.05;;;;;;;;;;5050987;28;20314;-66
2023/03/04 02:49:14;;;;;;;17.33;2.65;;;;;;;;;;5059113;28;20621;-65
2023/03/04 02:51:40;;;;;;;15.93;1.80;;;;;;;;;;5058500;28;20300;-66
2023/03/04 02:54:17;;;;;;;20.17;1.87;;;;;;;;;;5052887;28;20197;-65
2023/03/04 02:56:51;;;;;;;9.33;1.67;;;;;;;;;;5062539;28;20268;-66
2023/03/04 02:59:17;;;;;;;14.60;1.80;;;;;;;;;;5057651;28;20227;-66
2023/03/04 03:01:43;;;;;;;17.07;2.70;;;;;;;;;;5051142;28;20273;-66
2023/03/04 03:04:09;;;;;;;11.93;1.67;;;;;;;;;;5064224;28;20196;-65
2023/03/04 03:06:34;;;;;;;19.30;2.30;;;;;;;;;;5063656;28;20219;-66
2023/03/04 03:09:00;;;;;;;8.10;1.63;;;;;;;;;;5052797;28;20185;-66
2023/03/04 03:11:25;;;;;;;14.30;2.43;;;;;;;;;;5054331;28;20507;-66
2023/03/04 03:13:51;;;;;;;14.27;1.90;;;;;;;;;;5051024;28;20227;-66
2023/03/04 03:16:16;;;;;;;19.53;2.30;;;;;;;;;;5063049;28;20191;-65
2023/03/04 03:18:42;;;;;;;14.80;2.10;;;;;;;;;;5049258;28;20199;-66
2023/03/04 03:21:07;;;;;;;10.40;2.30;;;;;;;;;;5062185;28;20181;-66
2023/03/04 03:23:33;;;;;;;18.90;2.30;;;;;;;;;;5057920;28;20663;-66
2023/03/04 03:25:59;;;;;;;14.87;1.97;;;;;;;;;;5066199;28;20200;-66
2023/03/04 03:28:24;;;;;;;9.27;1.97;;;;;;;;;;5059494;28;20184;-66
2023/03/04 03:30:50;;;;;;;12.53;2.03;;;;;;;;;;5051463;28;20235;-66
2023/03/04 03:33:15;;;;;;;13.50;1.70;;;;;;;;;;5055998;28;20286;-66
2023/03/04 03:35:40;;;;;;;12.27;1.90;;;;;;;;;;5051461;28;20716;-66
2023/03/04 03:38:06;;;;;;;16.33;1.90;;;;;;;;;;5050003;28;20192;-66
2023/03/04 03:40:31;;;;;;;15.23;2.40;;;;;;;;;;5049520;28;20226;-66
2023/03/04 03:42:57;;;;;;;13.60;1.97;;;;;;;;;;5047530;28;20185;-66
2023/03/04 03:45:22;;;;;;;10.20;1.57;;;;;;;;;;5059852;28;20224;-67
2023/03/04 03:47:47;;;;;;;14.00;1.60;;;;;;;;;;5061350;28;20258;-66
2023/03/04 03:50:13;;;;;;;17.80;2.03;;;;;;;;;;5059435;28;20208;-66
2023/03/04 03:52:38;;;;;;;8.47;1.53;;;;;;;;;;5058716;28;20228;-66
2023/03/04 03:55:04;;;;;;;12.50;2.03;;;;;;;;;;5054807;28;20192;-66
2023/03/04 03:57:30;;;;;;;9.70;1.80;;;;;;;;;;5052793;28;20534;-66
2023/03/04 03:59:55;;;;;;;15.97;1.90;;;;;;;;;;5062878;28;20212;-66
2023/03/04 04:02:21;;;;;;;9.03;1.70;;;;;;;;;;5053727;28;20502;-66
2023/03/04 04:04:47;;;;;;;15.23;2.00;;;;;;;;;;5060157;28;20208;-67
2023/03/04 04:07:12;;;;;;;9.87;1.40;;;;;;;;;;5054175;28;20197;-66
2023/03/04 04:09:37;;;;;;;10.20;1.37;;;;;;;;;;5047653;28;20565;-66
2023/03/04 04:12:04;;;;;;;13.23;1.70;;;;;;;;;;5053706;28;20209;-66
2023/03/04 04:14:30;;;;;;;14.80;1.70;;;;;;;;;;5063758;28;20204;-66
2023/03/04 04:16:55;;;;;;;12.07;1.70;;;;;;;;;;5052395;28;20197;-66
2023/03/04 04:19:21;;;;;;;13.53;1.23;;;;;;;;;;5062599;28;20193;-66
2023/03/04 04:21:47;;;;;;;8.47;1.20;;;;;;;;;;5066496;28;20189;-66
2023/03/04 04:24:12;;;;;;;11.60;1.47;;;;;;;;;;5059660;28;20196;-66
2023/03/04 04:26:38;;;;;;;12.47;1.50;;;;;;;;;;5051177;28;20189;-66
2023/03/04 04:29:04;;;;;;;14.53;1.53;;;;;;;;;;5051954;28;20702;-66
2023/03/04 04:31:29;;;;;;;10.20;1.53;;;;;;;;;;5062548;28;20192;-66
2023/03/04 04:33:54;;;;;;;9.70;1.33;;;;;;;;;;5067379;28;20323;-66
2023/03/04 04:36:20;;;;;;;11.47;1.47;;;;;;;;;;5054848;28;20205;-66
2023/03/04 04:38:45;;;;;;;10.60;1.73;;;;;;;;;;5056526;28;20683;-66
2023/03/04 04:41:26;;;;;;;11.03;1.23;;;;;;;;;;5058919;28;20189;-66
2023/03/04 04:43:51;;;;;;;13.40;1.30;;;;;;;;;;5062161;28;20193;-66
2023/03/04 04:46:17;;;;;;;8.63;1.17;;;;;;;;;;5049825;28;20196;-66
2023/03/04 04:48:43;;;;;;;9.30;1.30;;;;;;;;;;5067926;28;20196;-65
2023/03/04 04:51:09;;;;;;;13.07;1.40;;;;;;;;;;5059557;28;20195;-66
2023/03/04 04:53:35;;;;;;;10.83;1.50;;;;;;;;;;5052161;28;20209;-66
2023/03/04 04:56:25;;;;;;;12.67;1.10;;;;;;;;;;5056241;28;20185;-66
2023/03/04 04:58:55;;;;;;;12.53;1.37;;;;;;;;;;5058239;28;20246;-66
2023/03/04 05:01:21;;;;;;;10.37;1.43;;;;;;;;;;5059556;28;20217;-66
2023/03/04 05:03:49;;;;;;;11.63;1.23;;;;;;;;;;5061367;28;20565;-66
2023/03/04 05:06:15;;;;;;;8.60;1.20;;;;;;;;;;5068458;28;20563;-66
2023/03/04 05:08:40;;;;;;;15.43;1.47;;;;;;;;;;5070860;28;20192;-66
2023/03/04 05:11:06;;;;;;;10.60;1.50;;;;;;;;;;5058772;28;20192;-66
2023/03/04 05:13:32;;;;;;;11.47;1.60;;;;;;;;;;5067685;28;20208;-66
2023/03/04 05:15:58;;;;;;;11.33;1.57;;;;;;;;;;5056537;28;20200;-66
2023/03/04 05:18:24;;;;;;;8.87;1.30;;;;;;;;;;5051408;28;20630;-66
2023/03/04 05:20:54;;;;;;;14.33;1.87;;;;;;;;;;5059754;28;20235;-66
2023/03/04 05:23:21;;;;;;;9.50;1.73;;;;;;;;;;5070924;28;20215;-66
2023/03/04 05:25:47;;;;;;;12.83;1.90;;;;;;;;;;5061688;28;20522;-66
2023/03/04 05:28:12;;;;;;;15.17;2.27;;;;;;;;;;5065513;28;20612;-66
2023/03/04 05:30:40;;;;;;;13.77;1.60;;;;;;;;;;5051412;28;20399;-66
2023/03/04 05:33:07;;;;;;;14.90;1.87;;;;;;;;;;5065277;28;20697;-66
2023/03/04 05:35:34;;;;;;;10.07;1.33;;;;;;;;;;5055579;28;20586;-66
2023/03/04 05:37:59;;;;;;;9.20;1.50;;;;;;;;;;5056717;28;20193;-66
2023/03/04 05:40:25;;;;;;;10.77;1.53;;;;;;;;;;5068229;28;20303;-66
2023/03/04 05:42:50;;;;;;;13.83;1.80;;;;;;;;;;5064625;28;20631;-65
2023/03/04 05:45:16;;;;;;;10.53;1.40;;;;;;;;;;5058475;28;20677;-66
2023/03/04 05:47:41;;;;;;;8.20;1.33;;;;;;;;;;5061857;28;20185;-65
2023/03/04 05:50:07;;;;;;;9.17;1.90;;;;;;;;;;5053931;28;20369;-65
2023/03/04 05:52:32;;;;;;;7.20;1.30;;;;;;;;;;5060266;28;20229;-66
2023/03/04 05:54:58;;;;;;;13.77;1.73;;;;;;;;;;5055817;28;20286;-66
2023/03/04 05:57:23;;;;;;;15.53;1.83;;;;;;;;;;5051894;28;20193;-66
2023/03/04 05:59:49;;;;;;;14.67;1.77;;;;;;;;;;5052930;28;20224;-66
2023/03/04 06:02:14;;;;;;;8.63;1.30;;;;;;;;;;5049581;28;20196;-66
2023/03/04 06:04:39;;;;;;;11.83;1.40;;;;;;;;;;5060309;28;20204;-65
2023/03/04 06:07:05;;;;;;;9.40;1.53;;;;;;;;;;5062298;28;20228;-65
2023/03/04 06:09:30;;;;;;;15.17;1.80;;;;;;;;;;5061528;28;20267;-66
2023/03/04 06:11:55;;;;;;;15.60;1.70;;;;;;;;;;5064326;28;20682;-66
2023/03/04 06:14:21;;;;;;;13.07;1.70;;;;;;;;;;5059438;28;20313;-65
2023/03/04 06:16:46;;;;;;;11.23;1.70;;;;;;;;;;5064467;28;20650;-66
2023/03/04 06:19:12;;;;;;;9.97;1.40;;;;;;;;;;5068243;28;20193;-66
2023/03/04 06:21:40;;;;;;;12.87;1.50;;;;;;;;;;5070567;28;20196;-65
2023/03/04 06:24:06;;;;;;;5.93;1.30;;;;;;;;;;5063988;28;20663;-65
2023/03/04 06:26:31;;;;;;;9.90;1.70;;;;;;;;;;5059523;28;20197;-65
2023/03/04 06:28:57;;;;;;;15.43;1.60;;;;;;;;;;5059798;28;20204;-65
2023/03/04 06:31:22;;;;;;;8.57;1.43;;;;;;;;;;5065261;28;20571;-66
2023/03/04 06:33:47;;;;;;;5.50;1.20;;;;;;;;;;5059388;28;20236;-67
2023/03/04 06:36:13;;;;;;;7.47;1.53;;;;;;;;;;5058929;28;20241;-66
2023/03/04 06:38:38;;;;;;;10.80;1.50;;;;;;;;;;5052532;28;20659;-66
2023/03/04 06:41:09;;;;;;;13.53;2.03;;;;;;;;;;5050770;28;20265;-67
2023/03/04 06:43:35;;;;;;;12.10;1.60;;;;;;;;;;5050352;28;20181;-67
2023/03/04 06:46:00;;;;;;;11.90;1.37;;;;;;;;;;5054838;28;20241;-66
2023/03/04 06:48:27;;;;;;;12.63;1.80;;;;;;;;;;5055506;28;20201;-66
2023/03/04 06:50:52;;;;;;;13.37;1.50;;;;;;;;;;5048229;28;20197;-66
2023/03/04 06:53:17;;;;;;;8.80;1.80;;;;;;;;;;5055774;28;20212;-65
2023/03/04 06:55:43;;;;;;;19.67;3.73;;;;;;;;;;5039094;28;20197;-65
2023/03/04 06:58:08;;;;;;;17.10;2.03;;;;;;;;;;5055771;28;20193;-66
2023/03/04 07:00:34;;;;;;;12.53;1.67;;;;;;;;;;5046435;28;20248;-65
2023/03/04 07:02:59;;;;;;;11.43;1.50;;;;;;;;;;5050510;28;20190;-65
2023/03/04 07:05:25;;;;;;;11.20;1.47;;;;;;;;;;5054959;28;20619;-65
2023/03/04 07:07:51;;;;;;;11.57;1.70;;;;;;;;;;5059643;28;20268;-65
2023/03/04 07:10:17;;;;;;;13.80;1.57;;;;;;;;;;5054520;28;20200;-65
2023/03/04 07:12:43;;;;;;;12.87;2.07;;;;;;;;;;5055534;28;20282;-65
2023/03/04 07:15:09;;;;;;;16.77;2.30;;;;;;;;;;5058250;28;20201;-65
2023/03/04 07:17:34;;;;;;;8.80;1.27;;;;;;;;;;5055350;28;20204;-65
2023/03/04 07:19:59;;;;;;;15.60;1.60;;;;;;;;;;5058058;28;20991;-65
2023/03/04 07:22:25;;;;;;;11.40;1.67;;;;;;;;;;5061571;28;20193;-65
2023/03/04 07:24:50;;;;;;;11.87;1.70;;;;;;;;;;5047400;28;20530;-66
2023/03/04 07:27:16;;;;;;;9.20;1.90;;;;;;;;;;5058055;28;20242;-66
2023/03/04 07:29:41;;;;;;;10.47;1.77;;;;;;;;;;5057370;28;20189;-65
2023/03/04 07:32:07;;;;;;;11.88;1.95;;;;;;;;;;5056503;28;20208;-68
2023/03/04 07:34:33;;;;;;;12.47;1.80;;;;;;;;;;5058870;28;20472;-66
2023/03/04 07:36:58;;;;;;;9.35;1.52;;;;;;;;;;5047778;28;20220;-65
2023/03/04 07:39:24;;;;;;;9.37;1.50;;;;;;;;;;5056035;28;20204;-64
2023/03/04 07:41:49;;;;;;;8.40;2.17;;;;;;;;;;5054046;28;20199;-66
2023/03/04 07:44:14;;;;;;;13.30;2.00;;;;;;;;;;5052794;28;20516;-66
2023/03/04 07:46:40;;;;;;;9.67;1.70;;;;;;;;;;5049935;28;20192;-66
2023/03/04 07:49:05;;;;;;;9.27;1.83;;;;;;;;;;5046123;28;20200;-66
2023/03/04 07:51:31;;;;;;;7.20;2.53;;;;;;;;;;5053870;28;20189;-65
2023/03/04 07:53:58;;;;;;;10.97;1.90;;;;;;;;;;5051930;28;20886;-66
2023/03/04 07:56:27;;;;;;;8.52;1.88;;;;;;;;;;5055740;28;20189;-65
2023/03/04 07:58:53;;;;;;;7.38;1.55;;;;;;;;;;5053259;28;20313;-65
2023/03/04 08:01:21;;;;;;;9.20;1.58;;;;;;;;;;5054362;28;20270;-65
2023/03/04 08:03:47;;;;;;;11.45;2.10;;;;;;;;;;5051810;28;20645;-65
2023/03/04 08:06:15;;;;;;;7.15;1.58;;;;;;;;;;5055702;28;20197;-65
2023/03/04 08:08:41;;;;;;;5.03;1.80;;;;;;;;;;5060165;28;20213;-65
2023/03/04 08:11:12;;;;;;;8.73;1.77;;;;;;;;;;5056249;28;20675;-65
2023/03/04 08:13:37;;;;;;;6.40;2.00;;;;;;;;;;5050958;28;20209;-66
2023/03/04 08:16:04;;;;;;;8.25;1.45;;;;;;;;;;5056383;28;20192;-66
2023/03/04 08:18:29;;;;;;;6.75;1.80;;;;;;;;;;5058727;28;20197;-66
2023/03/04 08:20:55;;;;;;;8.32;1.80;;;;;;;;;;5059488;28;20243;-66
2023/03/04 08:23:20;;;;;;;8.02;1.90;;;;;;;;;;5053312;28;20227;-66
2023/03/04 08:25:46;;;;;;;6.37;1.70;;;;;;;;;;5059098;28;20200;-66
2023/03/04 08:28:13;;;;;;;8.73;2.05;;;;;;;;;;5052168;28;20185;-66
2023/03/04 08:30:39;;;;;;;5.57;1.90;;;;;;;;;;5059430;28;20216;-66
2023/03/04 08:33:05;;;;;;;7.77;1.70;;;;;;;;;;5053453;28;20221;-65
2023/03/04 08:35:31;;;;;;;6.60;1.53;;;;;;;;;;5050853;28;20192;-66
2023/03/04 08:37:57;;;;;;;9.98;1.80;;;;;;;;;;5051592;28;20198;-66
2023/03/04 08:40:25;;;;;;;9.75;1.50;;;;;;;;;;5057789;28;20205;-66
2023/03/04 08:42:50;;;;;;;3.50;1.30;;;;;;;;;;5055127;28;20273;-66
2023/03/04 08:45:15;;;;;;;3.47;1.20;;;;;;;;;;5065471;28;20691;-66
2023/03/04 08:47:41;;;;;;;4.07;1.60;;;;;;;;;;5048195;28;20216;-66
2023/03/04 08:50:07;;;;;;;7.82;1.92;;;;;;;;;;5050055;28;20184;-66
2023/03/04 08:52:32;;;;;;;10.95;1.35;;;;;;;;;;5051716;28;20201;-66
2023/03/04 08:54:58;;;;;;;5.25;1.13;;;;;;;;;;5053115;28;20377;-65
2023/03/04 08:57:23;;;;;;;5.05;1.30;;;;;;;;;;5057162;28;20234;-66
2023/03/04 08:59:49;;;;;;;6.60;1.48;;;;;;;;;;5056565;28;20258;-66
2023/03/04 09:02:14;;;;;;;5.33;1.50;;;;;;;;;;5050937;28;20212;-66
2023/03/04 09:04:40;;;;;;;4.07;1.10;;;;;;;;;;5059012;28;20247;-66
2023/03/04 09:07:06;;;;;;;3.88;1.45;;;;;;;;;;5071494;28;20227;-67
2023/03/04 09:09:31;;;;;;;5.32;1.52;;;;;;;;;;5055289;28;20178;-66
2023/03/04 09:11:57;;;;;;;9.00;1.63;;;;;;;;;;5057107;28;20209;-66
2023/03/04 09:14:22;;;;;;;7.15;1.80;;;;;;;;;;5066372;28;20537;-66
2023/03/04 09:16:47;;;;;;;8.33;1.87;;;;;;;;;;5055793;28;20247;-66
2023/03/04 09:19:13;;;;;;;4.73;1.37;;;;;;;;;;5055446;28;20186;-66
2023/03/04 09:21:38;;;;;;;5.03;1.40;;;;;;;;;;5059299;28;20658;-66
2023/03/04 09:24:04;;;;;;;6.40;1.52;;;;;;;;;;5066142;28;20271;-67
2023/03/04 09:26:29;;;;;;;4.63;1.10;;;;;;;;;;5063419;28;20207;-67
2023/03/04 09:28:57;;;;;;;2.73;0.97;;;;;;;;;;5054257;28;20191;-67
2023/03/04 09:31:24;;;;;;;9.43;2.80;;;;;;;;;;5066766;28;20193;-66
2023/03/04 09:33:51;;;;;;;4.87;1.40;;;;;;;;;;5068190;28;20671;-67
2023/03/04 09:36:16;;;;;;;8.27;1.37;;;;;;;;;;5066460;28;20210;-67
2023/03/04 09:38:42;;;;;;;8.60;1.47;;;;;;;;;;5067792;28;20185;-67
2023/03/04 09:41:15;;;;;;;3.08;1.42;;;;;;;;;;5058530;28;20235;-66
2023/03/04 09:43:40;;;;;;;2.90;1.20;;;;;;;;;;5063396;28;20209;-66
2023/03/04 09:46:36;;;;;;;3.60;1.30;;;;;;;;;;5051273;28;20212;-67
2023/03/04 09:49:02;;;;;;;3.57;1.60;;;;;;;;;;5051355;28;20263;-67
2023/03/04 09:51:45;;;;;;;3.67;1.17;;;;;;;;;;5058722;28;20185;-67
2023/03/04 09:54:25;;;;;;;3.40;1.30;;;;;;;;;;5061177;28;20609;-67
2023/03/04 09:56:57;;;;;;;4.40;1.30;;;;;;;;;;5063518;28;20258;-67
2023/03/04 09:59:34;;;;;;;3.43;1.23;;;;;;;;;;5070102;28;20192;-67
2023/03/04 10:02:12;;;;;;;4.60;1.30;;;;;;;;;;5050703;28;20192;-67
2023/03/04 10:04:48;;;;;;;4.80;1.07;;;;;;;;;;5050276;28;20205;-67
2023/03/04 10:07:22;;;;;;;4.33;1.60;;;;;;;;;;5058996;28;20198;-67
2023/03/04 10:10:12;;;;;;;5.00;1.10;;;;;;;;;;5061777;28;20200;-66
2023/03/04 10:12:40;;;;;;;10.10;1.33;;;;;;;;;;5058016;28;20216;-67
2023/03/04 10:15:21;;;;;;;6.17;1.03;;;;;;;;;;5055023;28;20272;-67
2023/03/04 10:17:52;;;;;;;10.40;1.60;;;;;;;;;;5061941;28;20223;-67
2023/03/04 10:20:25;;;;;;;6.40;1.97;;;;;;;;;;5049788;28;20193;-67
2023/03/04 10:22:55;;;;;;;6.63;1.20;;;;;;;;;;5058888;28;20225;-67
2023/03/04 10:25:30;;;;;;;8.57;2.60;;;;;;;;;;5040371;28;20278;-67
2023/03/04 10:28:01;;;;;;;9.10;2.10;;;;;;;;;;5051279;28;20199;-67
2023/03/04 10:30:42;;;;;;;7.80;1.30;;;;;;;;;;5056818;28;20550;-67
2023/03/04 10:33:16;;;;;;;9.00;1.73;;;;;;;;;;5057396;28;20228;-67
2023/03/04 10:36:00;;;;;;;7.37;1.00;;;;;;;;;;5059816;28;20328;-68
2023/03/04 10:38:30;;;;;;;5.93;0.90;;;;;;;;;;5066720;28;20245;-66
2023/03/04 10:40:57;;;;;;;12.07;2.22;;;;;;;;;;5052618;28;20288;-65
2023/03/04 10:43:23;;;;;;;6.72;1.15;;;;;;;;;;5058084;28;20200;-65
2023/03/04 10:45:54;;;;;;;11.50;1.40;;;;;;;;;;5057449;28;20192;-65
2023/03/04 10:48:27;;;;;;;7.35;1.13;;;;;;;;;;5055079;28;20186;-65
2023/03/04 10:50:53;;;;;;;7.78;1.05;;;;;;;;;;5059896;28;20197;-66
2023/03/04 10:53:32;;;;;;;5.80;1.55;;;;;;;;;;5059924;28;20205;-66
2023/03/04 10:55:58;;;;;;;13.52;1.40;;;;;;;;;;5055528;28;20679;-66
2023/03/04 10:58:24;;;;;;;19.05;2.25;;;;;;;;;;5064240;28;20621;-66
2023/03/04 11:01:04;;;;;;;8.45;1.38;;;;;;;;;;5062769;28;20212;-67
2023/03/04 11:03:35;;;;;;;10.93;1.60;;;;;;;;;;5060453;28;20197;-66
2023/03/04 11:06:05;;;;;;;13.65;1.83;;;;;;;;;;5058971;28;20189;-67
2023/03/04 11:08:30;;;;;;;9.10;1.33;;;;;;;;;;5048885;28;20200;-66
2023/03/04 11:10:56;;;;;;;10.07;1.63;;;;;;;;;;5059283;28;20188;-66
2023/03/04 11:13:23;;;;;;;10.65;2.13;;;;;;;;;;5054326;28;20209;-66
2023/03/04 11:15:49;;;;;;;9.93;1.30;;;;;;;;;;5061027;28;20640;-67
2023/03/04 11:18:16;;;;;;;7.90;1.40;;;;;;;;;;5064696;28;20531;-66
2023/03/04 11:20:45;;;;;;;11.98;2.40;;;;;;;;;;5059860;28;20196;-66
2023/03/04 11:23:18;;;;;;;10.63;2.38;;;;;;;;;;5073373;28;20181;-66
2023/03/04 11:25:48;;;;;;;7.47;1.33;;;;;;;;;;5043204;28;20192;-66
2023/03/04 11:28:23;;;;;;;14.13;2.45;;;;;;;;;;5053968;28;20182;-66
2023/03/04 11:30:55;;;;;;;13.07;3.65;;;;;;;;;;5059362;28;20337;-66
2023/03/04 11:33:33;;;;;;;12.48;1.80;;;;;;;;;;5064619;28;20224;-67
2023/03/04 11:36:22;;;;;;;13.25;1.60;;;;;;;;;;5058170;28;20276;-66
2023/03/04 11:38:49;;;;;;;12.32;1.80;;;;;;;;;;5064090;28;20203;-66
2023/03/04 11:41:32;;;;;;;10.13;1.50;;;;;;;;;;5065953;28;20200;-66
2023/03/04 11:43:58;;;;;;;10.20;1.63;;;;;;;;;;5054657;28;20630;-66
2023/03/04 11:46:52;;;;;;;13.90;1.80;;;;;;;;;;5055732;28;20644;-66
2023/03/04 11:49:54;;;;;;;11.98;2.40;;;;;;;;;;5068202;28;20184;-66
2023/03/04 11:52:48;;;;;;;12.80;1.67;;;;;;;;;;5076837;28;20208;-66
2023/03/04 11:55:30;;;;;;;9.23;1.90;;;;;;;;;;5071325;28;20204;-66
2023/03/04 11:58:11;;;;;;;11.48;1.92;;;;;;;;;;5064624;28;20679;-66
2023/03/04 12:00:45;;;;;;;16.00;1.85;;;;;;;;;;5062599;28;20228;-66
2023/03/04 12:03:32;;;;;;;11.43;1.80;;;;;;;;;;5060909;28;20176;-66
2023/03/04 12:06:39;;;;;;;21.03;2.67;;;;;;;;;;5063345;28;20185;-68
2023/03/04 12:09:16;;;;;;;15.90;1.95;;;;;;;;;;5072358;28;20541;-67
2023/03/04 12:11:48;;;;;;;14.50;2.00;;;;;;;;;;5063795;28;20707;-67
2023/03/04 12:14:21;;;;;;;18.02;2.58;;;;;;;;;;5065090;28;20400;-67
2023/03/04 12:17:20;;;;;;;17.80;2.80;;;;;;;;;;5070736;28;20197;-67
2023/03/04 12:19:52;;;;;;;17.02;2.53;;;;;;;;;;5072166;28;20201;-67
2023/03/04 12:22:44;;;;;;;13.02;2.17;;;;;;;;;;5060346;28;20637;-67
2023/03/04 12:25:33;;;;;;;13.25;2.47;;;;;;;;;;5059732;28;20181;-65
2023/03/04 12:28:16;;;;;;;16.58;2.90;;;;;;;;;;5068742;28;20196;-67
2023/03/04 12:31:02;;;;;;;16.58;2.45;;;;;;;;;;5084734;28;20195;-65
2023/03/04 12:33:40;;;;;;;16.80;2.65;;;;;;;;;;5059648;28;20237;-69
2023/03/04 12:36:36;;;;;;;15.65;2.20;;;;;;;;;;5050499;28;20185;-65
2023/03/04 12:39:25;;;;;;;10.30;1.67;;;;;;;;;;5066937;28;20189;-67
2023/03/04 12:42:12;;;;;;;11.60;1.70;;;;;;;;;;5057982;28;20315;-66
2023/03/04 12:44:54;;;;;;;9.77;1.50;;;;;;;;;;5057336;28;20193;-66
2023/03/04 12:47:35;;;;;;;9.20;1.90;;;;;;;;;;5060765;28;20195;-66
2023/03/04 12:50:18;;;;;;;11.55;1.85;;;;;;;;;;5069187;28;20305;-66
2023/03/04 12:53:05;;;;;;;12.02;2.00;;;;;;;;;;5054855;28;20212;-66
2023/03/04 12:55:36;;;;;;;10.13;2.15;;;;;;;;;;5057906;28;20185;-67
2023/03/04 12:58:03;;;;;;;17.63;6.15;;;;;;;;;;5056961;28;20243;-66
2023/03/04 13:00:37;;;;;;;10.52;3.95;;;;;;;;;;5054707;28;20292;-66
2023/03/04 13:03:29;;;;;;;9.68;2.88;;;;;;;;;;5055091;28;20176;-66
2023/03/04 13:06:33;;;;;;;6.30;1.13;;;;;;;;;;5054074;28;20185;-67
2023/03/04 13:09:17;;;;;;;10.02;1.58;;;;;;;;;;5061288;28;20275;-65
2023/03/04 13:11:53;;;;;;;4.88;1.83;;;;;;;;;;5063240;28;20197;-65
2023/03/04 13:14:25;;;;;;;6.05;1.50;;;;;;;;;;5054047;28;20199;-66
2023/03/04 13:16:53;;;;;;;8.60;1.17;;;;;;;;;;5060632;28;20182;-66
2023/03/04 13:19:41;;;;;;;6.63;1.20;;;;;;;;;;5066783;28;20277;-66
2023/03/04 13:22:38;;;;;;;6.85;1.85;;;;;;;;;;5064141;28;20274;-66
2023/03/04 13:25:34;;;;;;;7.50;0.95;;;;;;;;;;5050837;28;20567;-66
2023/03/04 13:28:01;;;;;;;4.22;1.27;;;;;;;;;;5054059;28;20257;-66
2023/03/04 13:30:33;;;;;;;8.93;1.90;;;;;;;;;;5057019;28;20268;-66
2023/03/04 13:33:07;;;;;;;16.65;4.22;;;;;;;;;;5059128;28;20319;-66
2023/03/04 13:35:48;;;;;;;8.45;1.35;;;;;;;;;;5057387;28;20190;-66
2023/03/04 13:38:33;;;;;;;6.72;1.17;;;;;;;;;;5061973;28;20246;-66
2023/03/04 13:41:21;;;;;;;5.50;1.80;;;;;;;;;;5067028;28;20193;-66
2023/03/04 13:43:48;;;;;;;6.93;1.35;;;;;;;;;;5059259;28;20184;-67
2023/03/04 13:46:17;;;;;;;8.63;0.80;;;;;;;;;;5060439;28;20621;-66
2023/03/04 13:48:50;;;;;;;7.97;1.33;;;;;;;;;;5051240;28;20280;-65
2023/03/04 13:51:17;;;;;;;6.15;0.98;;;;;;;;;;5067918;28;20353;-68
2023/03/04 13:53:52;;;;;;;6.15;1.08;;;;;;;;;;5054234;28;20213;-66
2023/03/04 13:56:17;;;;;;;8.77;1.38;;;;;;;;;;5067489;28;20184;-66
2023/03/04 13:58:44;;;;;;;9.57;1.55;;;;;;;;;;5051035;28;20200;-67
2023/03/04 14:01:23;;;;;;;13.88;1.35;;;;;;;;;;5058426;28;20583;-66
2023/03/04 14:03:49;;;;;;;10.80;1.88;;;;;;;;;;5060169;28;20527;-66
2023/03/04 14:06:18;;;;;;;8.88;1.70;;;;;;;;;;5061615;28;20208;-66
2023/03/04 14:08:45;;;;;;;16.35;1.83;;;;;;;;;;5058404;28;20570;-66
2023/03/04 14:11:33;;;;;;;10.73;2.13;;;;;;;;;;5059988;28;20208;-66
2023/03/04 14:14:02;;;;;;;11.55;2.13;;;;;;;;;;5058063;28;20676;-66
2023/03/04 14:16:31;;;;;;;12.85;1.67;;;;;;;;;;5059984;28;20196;-66
2023/03/04 14:19:02;;;;;;;12.77;1.98;;;;;;;;;;5064003;28;20205;-66
2023/03/04 14:21:29;;;;;;;12.13;1.77;;;;;;;;;;5064469;28;20199;-67
2023/03/04 14:24:05;;;;;;;16.35;2.53;;;;;;;;;;5063037;28;20679;-66
2023/03/04 14:26:31;;;;;;;11.55;2.05;;;;;;;;;;5063307;28;20267;-66
2023/03/04 14:28:58;;;;;;;8.88;1.60;;;;;;;;;;5058758;28;20185;-66
2023/03/04 14:31:28;;;;;;;10.52;1.70;;;;;;;;;;5060627;28;20514;-66
2023/03/04 14:33:58;;;;;;;11.48;1.88;;;;;;;;;;5063856;28;20281;-65
2023/03/04 14:36:25;;;;;;;11.98;1.73;;;;;;;;;;5060054;28;20197;-64
2023/03/04 14:38:54;;;;;;;12.07;1.67;;;;;;;;;;5059579;28;20585;-66
2023/03/04 14:41:33;;;;;;;15.32;1.80;;;;;;;;;;5065119;28;20176;-66
2023/03/04 14:44:04;;;;;;;12.20;1.92;;;;;;;;;;5062259;28;20185;-65
2023/03/04 14:46:45;;;;;;;14.48;2.83;;;;;;;;;;5061179;28;20189;-65
2023/03/04 14:49:12;;;;;;;14.68;1.98;;;;;;;;;;5063712;28;20216;-67
2023/03/04 14:51:42;;;;;;;10.88;2.20;;;;;;;;;;5061911;28;20185;-65